createdAt,value
2023-05-19T00:02:06.190Z,7.00
2023-05-19T00:05:10.534Z,7.07
2023-05-19T00:08:16.581Z,7.07
2023-05-19T00:11:19.439Z,7.80
2023-05-19T00:14:29.275Z,7.32
2023-05-19T00:17:34.453Z,8.45
2023-05-19T00:20:38.420Z,7.87
2023-05-19T00:23:41.180Z,12.53
2023-05-19T00:26:43.678Z,7.25
2023-05-19T00:29:46.291Z,7.60
2023-05-19T00:32:49.102Z,6.97
2023-05-19T00:35:51.783Z,7.62
2023-05-19T00:38:54.348Z,7.20
2023-05-19T00:41:56.933Z,6.60
2023-05-19T00:44:59.522Z,7.43
2023-05-19T00:48:02.350Z,8.10
2023-05-19T00:51:06.704Z,7.90
2023-05-19T00:54:09.691Z,8.20
2023-05-19T00:57:14.039Z,10.48
2023-05-19T01:00:16.938Z,8.25
2023-05-19T01:03:20.930Z,11.18
2023-05-19T01:06:23.585Z,8.87
2023-05-19T01:09:26.203Z,7.97
2023-05-19T01:12:29.216Z,30.95
2023-05-19T01:15:41.870Z,32.22
2023-05-19T01:18:51.182Z,22.58
2023-05-19T01:22:31.066Z,18.00
2023-05-19T01:25:57.891Z,16.83
2023-05-19T01:29:26.670Z,15.20
2023-05-19T01:32:30.191Z,11.82
2023-05-19T01:35:38.472Z,10.02
2023-05-19T01:38:41.184Z,12.15
2023-05-19T01:41:44.844Z,9.93
2023-05-19T01:44:47.843Z,10.82
2023-05-19T01:47:54.133Z,9.50
2023-05-19T01:50:59.154Z,9.93
2023-05-19T01:54:01.819Z,10.80
2023-05-19T01:57:11.825Z,10.17
2023-05-19T02:00:42.702Z,10.40
2023-05-19T02:03:59.778Z,12.75
2023-05-19T02:07:09.480Z,11.02
2023-05-19T02:10:19.930Z,11.48
2023-05-19T02:13:24.734Z,9.37
2023-05-19T02:16:29.099Z,10.45
2023-05-19T02:19:34.334Z,10.45
2023-05-19T02:22:36.977Z,10.63
2023-05-19T02:25:39.589Z,11.02
2023-05-19T02:28:42.232Z,9.53
2023-05-19T02:31:44.955Z,12.35
2023-05-19T02:34:48.621Z,10.52
2023-05-19T02:37:51.764Z,9.48
2023-05-19T02:40:54.452Z,9.98
2023-05-19T02:43:57.001Z,10.80
2023-05-19T02:46:59.551Z,10.82
2023-05-19T02:50:02.260Z,9.55
2023-05-19T02:53:04.985Z,12.77
2023-05-19T02:56:07.570Z,9.90
2023-05-19T02:59:10.255Z,9.57
2023-05-19T03:02:12.902Z,10.25
2023-05-19T03:05:16.611Z,10.32
2023-05-19T03:08:19.839Z,12.10
2023-05-19T03:11:23.463Z,10.97
2023-05-19T03:14:26.044Z,16.13
2023-05-19T03:17:33.874Z,10.75
2023-05-19T03:20:36.521Z,12.20
2023-05-19T03:23:39.153Z,11.05
2023-05-19T03:26:42.278Z,10.88
2023-05-19T03:29:44.890Z,10.13
2023-05-19T03:32:52.308Z,12.43
2023-05-19T03:35:54.993Z,11.07
2023-05-19T03:38:58.313Z,11.93
2023-05-19T03:42:00.959Z,12.32
2023-05-19T03:45:03.923Z,14.57
2023-05-19T03:48:06.850Z,12.65
2023-05-19T03:51:09.803Z,14.07
2023-05-19T03:54:12.671Z,12.18
2023-05-19T03:57:15.371Z,12.95
2023-05-19T04:00:19.052Z,12.93
2023-05-19T04:03:21.700Z,13.90
2023-05-19T04:06:27.712Z,13.02
2023-05-19T04:09:32.194Z,13.25
2023-05-19T04:12:34.855Z,13.15
2023-05-19T04:15:37.566Z,14.27
2023-05-19T04:18:40.439Z,15.60
2023-05-19T04:21:43.044Z,14.18
2023-05-19T04:24:46.555Z,14.85
2023-05-19T04:27:49.228Z,16.50
2023-05-19T04:30:52.133Z,16.40
2023-05-19T04:33:54.935Z,17.17
2023-05-19T04:36:57.675Z,14.82
2023-05-19T04:40:00.251Z,14.35
2023-05-19T04:43:02.886Z,14.10
2023-05-19T04:46:06.492Z,14.27
2023-05-19T04:49:09.278Z,12.85
2023-05-19T04:52:12.786Z,15.27
2023-05-19T04:55:16.097Z,18.27
2023-05-19T04:58:19.932Z,14.70
2023-05-19T05:01:26.359Z,14.40
2023-05-19T05:04:29.215Z,15.10
2023-05-19T05:07:34.759Z,15.88
2023-05-19T05:10:37.380Z,17.05
2023-05-19T05:13:40.379Z,15.52
2023-05-19T05:16:43.763Z,17.50
2023-05-19T05:19:46.681Z,15.48
2023-05-19T05:22:49.775Z,14.95
2023-05-19T05:25:55.935Z,16.87
2023-05-19T05:28:58.672Z,14.95
2023-05-19T05:32:01.295Z,14.00
2023-05-19T05:35:06.975Z,13.02
2023-05-19T05:38:11.652Z,14.10
2023-05-19T05:41:14.399Z,15.63
2023-05-19T05:44:16.960Z,15.38
2023-05-19T05:47:19.972Z,17.17
2023-05-19T05:50:22.817Z,15.23
2023-05-19T05:53:26.419Z,17.50
2023-05-19T05:56:29.248Z,14.18
2023-05-19T05:59:34.015Z,22.83
2023-05-19T06:02:37.146Z,16.10
2023-05-19T06:05:39.842Z,14.45
2023-05-19T06:08:42.682Z,14.27
2023-05-19T06:11:45.429Z,14.60
2023-05-19T06:14:48.035Z,12.82
2023-05-19T06:17:50.801Z,14.67
2023-05-19T06:20:53.479Z,12.25
2023-05-19T06:23:56.110Z,13.52
2023-05-19T06:26:58.985Z,12.68
2023-05-19T06:30:01.755Z,11.70
2023-05-19T06:33:04.433Z,11.37
2023-05-19T06:36:08.619Z,12.75
2023-05-19T06:39:11.235Z,13.60
2023-05-19T06:42:13.922Z,15.25
2023-05-19T06:45:16.977Z,13.13
2023-05-19T06:48:19.760Z,17.27
2023-05-19T06:51:22.551Z,12.55
2023-05-19T06:54:25.324Z,13.52
2023-05-19T06:57:27.952Z,13.20
2023-05-19T07:00:30.664Z,13.38
2023-05-19T07:03:33.387Z,13.40
2023-05-19T07:06:36.189Z,15.23
2023-05-19T07:09:38.907Z,15.57
2023-05-19T07:12:41.597Z,14.00
2023-05-19T07:15:44.306Z,18.17
2023-05-19T07:18:46.989Z,13.70
2023-05-19T07:21:49.923Z,12.48
2023-05-19T07:24:52.930Z,12.02
2023-05-19T07:27:55.514Z,15.93
2023-05-19T07:30:58.187Z,13.25
2023-05-19T07:34:00.912Z,13.50
2023-05-19T07:37:03.814Z,14.27
2023-05-19T07:40:08.087Z,14.77
2023-05-19T07:43:11.674Z,16.55
2023-05-19T07:46:14.326Z,14.45
2023-05-19T07:49:17.083Z,17.07
2023-05-19T07:52:19.693Z,15.90
2023-05-19T07:55:23.426Z,15.07
2023-05-19T07:58:26.413Z,14.15
2023-05-19T08:01:30.558Z,16.77
2023-05-19T08:04:33.315Z,24.60
2023-05-19T08:07:36.370Z,16.17
2023-05-19T08:10:39.103Z,16.37
2023-05-19T08:13:41.855Z,14.15
2023-05-19T08:16:46.215Z,14.75
2023-05-19T08:19:48.974Z,15.33
2023-05-19T08:22:51.844Z,14.70
2023-05-19T08:25:54.462Z,13.70
2023-05-19T08:28:57.152Z,13.68
2023-05-19T08:32:00.488Z,14.48
2023-05-19T08:35:03.139Z,16.27
2023-05-19T08:38:05.811Z,14.95
2023-05-19T08:41:08.891Z,12.57
2023-05-19T08:44:11.825Z,14.45
2023-05-19T08:47:14.490Z,13.05
2023-05-19T08:50:23.020Z,13.40
2023-05-19T08:56:34.349Z,11.90
2023-05-19T08:59:37.255Z,14.38
2023-05-19T09:02:50.477Z,12.20
2023-05-19T09:06:02.767Z,16.70
2023-05-19T09:09:06.413Z,13.48
2023-05-19T09:12:09.399Z,11.73
2023-05-19T09:15:16.265Z,11.98
2023-05-19T09:18:18.927Z,11.57
2023-05-19T09:21:31.419Z,11.93
2023-05-19T09:24:34.399Z,11.25
2023-05-19T09:27:37.353Z,12.65
2023-05-19T09:30:40.026Z,12.48
2023-05-19T09:33:45.890Z,12.40
2023-05-19T09:36:53.474Z,11.50
2023-05-19T09:39:56.681Z,11.52
2023-05-19T09:42:59.249Z,11.70
2023-05-19T09:46:13.634Z,11.73
2023-05-19T09:49:32.964Z,13.05
2023-05-19T09:52:39.703Z,12.43
2023-05-19T09:55:42.997Z,12.10
2023-05-19T09:58:45.886Z,11.00
2023-05-19T10:01:49.006Z,11.60
2023-05-19T10:04:52.818Z,12.23
2023-05-19T10:07:55.998Z,12.80
2023-05-19T10:10:58.858Z,11.65
2023-05-19T10:14:01.555Z,12.48
2023-05-19T10:17:04.388Z,12.52
2023-05-19T10:20:15.692Z,13.70
2023-05-19T10:23:18.959Z,14.03
2023-05-19T10:26:22.018Z,13.75
2023-05-19T10:29:29.151Z,15.82
2023-05-19T10:32:32.947Z,14.50
2023-05-19T10:35:52.875Z,12.75
2023-05-19T10:39:04.501Z,12.97
2023-05-19T10:42:19.907Z,11.93
2023-05-19T10:45:24.455Z,12.45
2023-05-19T10:48:27.042Z,13.60
2023-05-19T10:51:32.945Z,14.07
2023-05-19T10:54:48.637Z,13.00
2023-05-19T10:57:56.997Z,14.73
2023-05-19T11:01:03.426Z,12.37
2023-05-19T11:04:07.116Z,12.60
2023-05-19T11:07:10.687Z,13.40
2023-05-19T11:10:13.679Z,20.13
2023-05-19T11:13:22.680Z,13.13
2023-05-19T11:16:29.667Z,12.40
2023-05-19T11:19:34.944Z,15.95
2023-05-19T11:22:39.004Z,12.05
2023-05-19T11:25:54.002Z,15.87
2023-05-19T11:28:57.277Z,12.45
2023-05-19T11:32:00.992Z,12.13
2023-05-19T11:35:03.806Z,12.60
2023-05-19T11:38:07.615Z,11.52
2023-05-19T11:41:10.152Z,11.97
2023-05-19T11:44:12.898Z,12.00
2023-05-19T11:47:17.383Z,10.57
2023-05-19T11:50:20.824Z,11.82
2023-05-19T11:53:23.574Z,10.95
2023-05-19T11:56:26.324Z,10.40
2023-05-19T11:59:35.592Z,11.82
2023-05-19T12:02:39.049Z,9.90
2023-05-19T12:05:45.998Z,10.02
2023-05-19T12:08:52.050Z,9.45
2023-05-19T12:11:55.370Z,10.13
2023-05-19T12:14:58.144Z,9.40
2023-05-19T12:18:02.371Z,10.00
2023-05-19T12:21:05.552Z,10.10
2023-05-19T12:24:09.072Z,9.35
2023-05-19T12:27:18.449Z,9.83
2023-05-19T12:30:26.690Z,9.63
2023-05-19T12:33:29.460Z,9.63
2023-05-19T12:36:32.535Z,10.13
2023-05-19T12:39:35.325Z,10.40
2023-05-19T12:42:38.089Z,10.70
2023-05-19T12:45:42.801Z,11.30
2023-05-19T12:48:46.634Z,12.77
2023-05-19T12:51:53.886Z,11.35
2023-05-19T12:55:07.902Z,10.60
2023-05-19T12:58:16.032Z,11.10
2023-05-19T13:01:19.271Z,11.05
2023-05-19T13:04:22.137Z,11.00
2023-05-19T13:07:24.918Z,12.48
2023-05-19T13:10:28.356Z,11.25
2023-05-19T13:13:31.135Z,11.63
2023-05-19T13:16:33.795Z,14.05
2023-05-19T13:19:36.555Z,11.07
2023-05-19T13:22:39.263Z,10.88
2023-05-19T13:25:42.783Z,10.98
2023-05-19T13:28:45.514Z,10.67
2023-05-19T13:31:48.242Z,9.45
2023-05-19T13:34:50.885Z,11.80
2023-05-19T13:37:53.562Z,10.52
2023-05-19T13:40:56.171Z,10.48
2023-05-19T13:44:02.106Z,10.07
2023-05-19T13:47:05.054Z,10.05
2023-05-19T13:50:08.234Z,8.88
2023-05-19T13:53:11.757Z,9.98
2023-05-19T13:56:14.462Z,9.52
2023-05-19T13:59:21.796Z,9.70
2023-05-19T14:02:24.548Z,10.45
2023-05-19T14:05:29.210Z,9.35
2023-05-19T14:08:32.602Z,9.32
2023-05-19T14:11:35.566Z,11.25
2023-05-19T14:14:38.666Z,9.07
2023-05-19T14:17:41.510Z,9.82
2023-05-19T14:20:44.353Z,8.95
2023-05-19T14:23:47.117Z,11.20
2023-05-19T14:26:50.090Z,9.05
2023-05-19T14:29:52.766Z,10.10
2023-05-19T14:32:56.290Z,10.07
2023-05-19T14:36:02.283Z,8.70
2023-05-19T14:39:04.976Z,9.07
2023-05-19T14:42:07.621Z,8.60
2023-05-19T14:45:11.042Z,8.97
2023-05-19T14:48:13.908Z,9.63
2023-05-19T14:51:16.645Z,10.60
2023-05-19T14:54:19.298Z,9.77
2023-05-19T14:57:21.956Z,12.63
2023-05-19T15:00:27.232Z,10.37
2023-05-19T15:03:29.887Z,10.35
2023-05-19T15:06:32.558Z,9.00
2023-05-19T15:09:35.656Z,10.63
2023-05-19T15:12:38.616Z,10.88
2023-05-19T15:15:41.319Z,9.77
2023-05-19T15:18:44.603Z,10.20
2023-05-19T15:21:47.312Z,8.55
2023-05-19T15:24:49.886Z,9.60
2023-05-19T15:27:52.479Z,9.55
2023-05-19T15:30:55.706Z,8.30
2023-05-19T15:33:58.342Z,10.55
2023-05-19T15:37:01.023Z,9.95
2023-05-19T15:40:04.631Z,8.90
2023-05-19T15:43:07.254Z,8.70
2023-05-19T15:46:10.098Z,8.70
2023-05-19T15:49:13.125Z,8.10
2023-05-19T15:52:15.998Z,11.52
2023-05-19T15:55:18.894Z,11.63
2023-05-19T15:58:21.753Z,8.13
2023-05-19T16:01:24.497Z,7.70
2023-05-19T16:04:27.216Z,9.48
2023-05-19T16:07:30.024Z,8.60
2023-05-19T16:10:33.069Z,8.40
2023-05-19T16:13:36.148Z,9.23
2023-05-19T16:16:39.030Z,9.13
2023-05-19T16:19:41.929Z,8.63
2023-05-19T16:22:44.573Z,7.90
2023-05-19T16:25:47.830Z,8.20
2023-05-19T16:28:50.692Z,8.23
2023-05-19T16:31:53.496Z,7.53
2023-05-19T16:34:56.291Z,9.07
2023-05-19T16:37:59.044Z,9.60
2023-05-19T16:41:01.796Z,8.68
2023-05-19T16:44:04.604Z,10.02
2023-05-19T16:47:07.228Z,9.53
2023-05-19T16:50:10.411Z,8.30
2023-05-19T16:53:13.212Z,9.52
2023-05-19T16:56:16.050Z,7.95
2023-05-19T16:59:18.791Z,9.57
2023-05-19T17:02:21.546Z,9.07
2023-05-19T17:05:24.300Z,13.65
2023-05-19T17:08:27.060Z,16.25
2023-05-19T17:11:29.718Z,56.80
2023-05-19T17:14:32.383Z,28.95
2023-05-19T17:17:35.113Z,15.80
2023-05-19T17:20:37.789Z,10.63
2023-05-19T17:23:40.409Z,8.43
2023-05-19T17:26:43.152Z,10.10
2023-05-19T17:29:46.057Z,8.43
2023-05-19T17:32:48.819Z,8.30
2023-05-19T17:35:51.549Z,9.48
2023-05-19T17:38:54.259Z,8.27
2023-05-19T17:41:56.918Z,8.10
2023-05-19T17:44:59.713Z,8.10
2023-05-19T17:48:02.583Z,7.73
2023-05-19T17:51:07.177Z,8.98
2023-05-19T17:54:10.001Z,8.88
2023-05-19T17:57:13.480Z,8.68
2023-05-19T18:00:16.448Z,9.02
2023-05-19T18:03:19.536Z,8.43
2023-05-19T18:06:24.566Z,10.10
2023-05-19T18:09:29.147Z,8.07
2023-05-19T18:12:31.860Z,8.73
2023-05-19T18:15:35.023Z,8.43
2023-05-19T18:18:40.370Z,10.37
2023-05-19T18:21:43.084Z,8.82
2023-05-19T18:24:45.835Z,8.00
2023-05-19T18:27:48.630Z,9.13
2023-05-19T18:31:01.696Z,7.97
2023-05-19T18:34:04.719Z,8.50
2023-05-19T18:37:07.526Z,10.90
2023-05-19T18:40:10.669Z,9.25
2023-05-19T18:43:13.425Z,10.70
2023-05-19T18:46:18.027Z,8.82
2023-05-19T18:49:21.129Z,10.57
2023-05-19T18:52:24.416Z,9.70
2023-05-19T18:55:27.088Z,10.68
2023-05-19T18:58:29.745Z,10.63
2023-05-19T19:01:32.640Z,8.73
2023-05-19T19:04:35.320Z,8.63
2023-05-19T19:07:41.790Z,7.90
2023-05-19T19:10:44.520Z,8.88
2023-05-19T19:13:51.315Z,8.93
2023-05-19T19:16:54.078Z,10.60
2023-05-19T19:19:56.934Z,9.43
2023-05-19T19:22:59.631Z,8.55
2023-05-19T19:26:02.452Z,8.77
2023-05-19T19:29:05.187Z,10.75
2023-05-19T19:32:08.019Z,10.18
2023-05-19T19:35:11.294Z,13.30
2023-05-19T19:38:14.167Z,9.85
2023-05-19T19:41:16.960Z,11.30
2023-05-19T19:44:19.789Z,8.77
2023-05-19T19:47:22.483Z,9.02
2023-05-19T19:50:25.159Z,9.43
2023-05-19T19:53:27.968Z,10.63
2023-05-19T19:56:30.589Z,11.27
2023-05-19T19:59:33.280Z,9.13
2023-05-19T20:02:40.972Z,9.15
2023-05-19T20:05:48.371Z,10.97
2023-05-19T20:08:50.991Z,9.27
2023-05-19T20:11:54.003Z,11.30
2023-05-19T20:14:56.868Z,11.23
2023-05-19T20:17:59.502Z,12.18
2023-05-19T20:21:02.202Z,10.20
2023-05-19T20:24:05.026Z,12.60
2023-05-19T20:27:07.959Z,8.60
2023-05-19T20:30:10.917Z,9.07
2023-05-19T20:33:13.805Z,10.32
2023-05-19T20:36:16.523Z,9.10
2023-05-19T20:39:19.310Z,10.15
2023-05-19T20:42:21.915Z,13.85
2023-05-19T20:45:24.593Z,10.15
2023-05-19T20:48:27.474Z,14.20
2023-05-19T20:51:30.318Z,12.50
2023-05-19T20:54:32.958Z,12.00
2023-05-19T20:57:35.681Z,11.52
2023-05-19T21:00:38.402Z,13.50
2023-05-19T21:03:41.087Z,11.18
2023-05-19T21:06:43.884Z,13.03
2023-05-19T21:09:48.220Z,10.07
2023-05-19T21:12:50.965Z,11.57
2023-05-19T21:15:53.624Z,12.02
2023-05-19T21:18:56.461Z,13.23
2023-05-19T21:21:59.177Z,13.03
2023-05-19T21:25:01.912Z,12.25
2023-05-19T21:28:04.882Z,11.48
2023-05-19T21:31:07.591Z,12.27
2023-05-19T21:34:10.347Z,13.52
2023-05-19T21:37:12.953Z,11.67
2023-05-19T21:40:15.641Z,10.88
2023-05-19T21:43:18.491Z,12.07
2023-05-19T21:46:21.266Z,11.35
2023-05-19T21:49:23.898Z,9.85
2023-05-19T21:52:26.574Z,8.93
2023-05-19T21:55:29.208Z,12.18
2023-05-19T21:58:31.936Z,11.10
2023-05-19T22:01:34.538Z,9.63
2023-05-19T22:04:38.734Z,9.95
2023-05-19T22:07:41.982Z,10.20
2023-05-19T22:10:44.980Z,10.07
2023-05-19T22:13:47.623Z,11.90
2023-05-19T22:16:50.390Z,9.40
2023-05-19T22:19:53.250Z,10.20
2023-05-19T22:22:57.010Z,9.70
2023-05-19T22:25:59.894Z,9.40
2023-05-19T22:29:03.469Z,11.00
2023-05-19T22:32:12.266Z,10.57
2023-05-19T22:35:15.093Z,9.93
2023-05-19T22:38:17.739Z,17.53
2023-05-19T22:41:20.369Z,11.12
2023-05-19T22:44:22.913Z,10.80
2023-05-19T22:47:25.747Z,10.50
2023-05-19T22:50:28.357Z,12.15
2023-05-19T22:53:31.024Z,10.83
2023-05-19T22:56:33.860Z,11.45
2023-05-19T22:59:38.427Z,11.55
2023-05-19T23:02:42.063Z,10.13
2023-05-19T23:05:44.667Z,12.10
2023-05-19T23:08:47.593Z,10.50
2023-05-19T23:11:50.444Z,13.00
2023-05-19T23:14:53.259Z,10.07
2023-05-19T23:17:56.022Z,11.45
2023-05-19T23:20:58.703Z,11.60
2023-05-19T23:24:01.490Z,10.63
2023-05-19T23:27:04.141Z,10.82
2023-05-19T23:30:07.394Z,12.02
2023-05-19T23:33:10.044Z,11.25
2023-05-19T23:36:12.863Z,11.93
2023-05-19T23:39:15.429Z,12.73
2023-05-19T23:42:18.333Z,16.12
2023-05-19T23:45:20.923Z,12.98
2023-05-19T23:48:23.620Z,12.52
2023-05-19T23:51:26.731Z,12.57
2023-05-19T23:54:30.430Z,15.17
2023-05-19T23:57:33.043Z,11.98
